Time;durP1;ratioP1;P1;durP2;ratioP2;P2;SDS_P1;SDS_P2;PMS_P1;PMS_P2;Temp;Humidity;BMP_temperature;BMP_pressure;BME280_temperature;BME280_humidity;BME280_pressure;Samples;Min_cycle;Max_cycle;Signal;HPM_P1;HPM_P2
2022/07/07 00:00:56;;;;;;;2.10;1.90;;;;;;;16.10;65.19;98761.94;5073282;28;20302;-70
2022/07/07 00:03:23;;;;;;;3.60;1.53;;;;;;;16.10;64.99;98761.94;5075080;28;20219;-70
2022/07/07 00:05:49;;;;;;;2.17;1.80;;;;;;;16.14;64.70;98766.06;5075248;28;20215;-70
2022/07/07 00:08:16;;;;;;;2.90;1.63;;;;;;;16.17;64.77;98763.16;5074523;28;20212;-70
2022/07/07 00:10:43;;;;;;;2.63;1.80;;;;;;;16.14;64.51;98758.06;5074830;28;20208;-70
2022/07/07 00:13:09;;;;;;;3.03;1.80;;;;;;;16.13;64.44;98758.16;5074548;28;20211;-70
2022/07/07 00:15:38;;;;;;;3.53;1.90;;;;;;;16.16;64.22;98755.25;5074749;28;20215;-70
2022/07/07 00:18:04;;;;;;;2.73;1.50;;;;;;;16.17;64.10;98763.16;5074867;28;20302;-70
2022/07/07 00:20:31;;;;;;;2.83;1.70;;;;;;;16.17;63.94;98752.47;5072929;28;20211;-70
2022/07/07 00:22:57;;;;;;;3.97;2.30;;;;;;;16.16;63.91;98756.09;5074497;28;20227;-70
2022/07/07 00:25:24;;;;;;;3.57;2.10;;;;;;;16.13;64.12;98753.69;5074227;28;20211;-70
2022/07/07 00:27:50;;;;;;;2.33;1.70;;;;;;;16.13;64.29;98751.03;5074591;28;20215;-70
2022/07/07 00:30:17;;;;;;;1.60;1.50;;;;;;;16.13;64.26;98744.84;5074424;28;20235;-70
2022/07/07 00:32:45;;;;;;;3.07;1.90;;;;;;;16.15;64.82;98750.91;5074541;28;20218;-70
2022/07/07 00:35:11;;;;;;;3.20;1.53;;;;;;;16.19;65.25;98747.84;5074470;28;20295;-70
2022/07/07 00:37:38;;;;;;;2.90;1.93;;;;;;;16.23;65.03;98748.44;5074386;28;20218;-70
2022/07/07 00:40:06;;;;;;;2.13;1.70;;;;;;;16.19;64.99;98745.19;5073942;28;20222;-70
2022/07/07 00:42:32;;;;;;;2.50;1.70;;;;;;;16.20;64.32;98746.03;5073876;28;20695;-70
2022/07/07 00:44:59;;;;;;;2.20;1.90;;;;;;;16.16;64.55;98745.44;5074021;28;20579;-70
2022/07/07 00:47:27;;;;;;;2.23;1.70;;;;;;;16.20;63.66;98741.53;5072304;28;20313;-69
2022/07/07 00:49:55;;;;;;;2.13;1.60;;;;;;;16.22;63.27;98742.25;5074108;28;20257;-70
2022/07/07 00:52:22;;;;;;;2.73;2.30;;;;;;;16.20;63.06;98741.53;5073952;28;20211;-70
2022/07/07 00:54:52;;;;;;;1.90;1.80;;;;;;;16.18;63.09;98735.50;5074043;28;20238;-69
2022/07/07 00:57:19;;;;;;;3.77;2.10;;;;;;;16.17;63.40;98736.47;5073883;28;20292;-69
2022/07/07 00:59:46;;;;;;;2.80;2.03;;;;;;;16.26;63.75;98735.72;5072700;28;20222;-69
2022/07/07 01:02:12;;;;;;;3.03;2.23;;;;;;;16.23;63.75;98735.97;5072040;28;20587;-69
2022/07/07 01:04:39;;;;;;;3.03;1.60;;;;;;;16.23;63.82;98735.97;5072228;28;20212;-70
2022/07/07 01:07:07;;;;;;;4.93;1.83;;;;;;;16.19;64.17;98734.53;5072133;28;20302;-70
2022/07/07 01:09:34;;;;;;;3.40;2.00;;;;;;;16.18;64.48;98727.50;5071369;28;20235;-69
2022/07/07 01:12:00;;;;;;;4.90;2.20;;;;;;;16.17;64.61;98724.94;5072065;28;20218;-70
2022/07/07 01:14:28;;;;;;;4.73;2.03;;;;;;;16.17;64.70;98725.81;5071982;28;20211;-69
2022/07/07 01:16:55;;;;;;;4.33;1.90;;;;;;;16.13;64.92;98727.03;5072516;28;20284;-69
2022/07/07 01:19:23;;;;;;;2.20;1.80;;;;;;;16.13;65.18;98719.03;5072786;28;20216;-69
2022/07/07 01:21:53;;;;;;;3.63;2.13;;;;;;;16.12;65.56;98721.81;5073483;28;20207;-69
2022/07/07 01:24:22;;;;;;;6.20;2.20;;;;;;;16.13;65.84;98714.66;5073641;28;20207;-69
2022/07/07 01:26:49;;;;;;;2.20;1.90;;;;;;;16.13;66.06;98717.34;5073799;28;20246;-69
2022/07/07 01:29:15;;;;;;;3.23;2.20;;;;;;;16.07;66.59;98712.50;5073099;28;20740;-69
2022/07/07 01:31:42;;;;;;;2.30;2.10;;;;;;;16.02;67.10;98709.38;5073054;28;20306;-69
2022/07/07 01:34:09;;;;;;;3.10;2.10;;;;;;;16.03;67.71;98709.25;5073288;28;20211;-69
2022/07/07 01:36:35;;;;;;;3.40;2.37;;;;;;;16.01;68.39;98708.50;5073176;28;20246;-69
2022/07/07 01:39:02;;;;;;;2.90;2.20;;;;;;;16.02;68.13;98720.03;5071507;28;20306;-69
2022/07/07 01:41:30;;;;;;;2.53;2.20;;;;;;;16.00;67.60;98708.66;5072894;28;20243;-69
2022/07/07 01:43:56;;;;;;;2.10;1.90;;;;;;;16.01;67.51;98697.00;5072945;28;20677;-69
2022/07/07 01:46:23;;;;;;;2.43;1.93;;;;;;;16.06;67.25;98700.16;5073115;28;20219;-69
2022/07/07 01:48:49;;;;;;;2.50;2.00;;;;;;;16.06;67.18;98700.16;5073333;28;20211;-70
2022/07/07 01:51:16;;;;;;;2.60;1.70;;;;;;;16.03;67.41;98696.75;5073365;28;20224;-69
2022/07/07 01:53:42;;;;;;;2.37;2.17;;;;;;;16.00;67.45;98693.47;5073277;28;20215;-69
2022/07/07 01:56:09;;;;;;;3.40;2.43;;;;;;;15.98;67.55;98694.56;5073026;28;20617;-70
2022/07/07 01:58:37;;;;;;;2.67;2.00;;;;;;;16.02;67.36;98690.69;5072837;28;20743;-69
2022/07/07 02:01:03;;;;;;;4.60;2.10;;;;;;;16.04;67.18;98690.44;5072816;28;20207;-69
2022/07/07 02:03:31;;;;;;;2.30;2.10;;;;;;;16.01;67.37;98686.34;5073005;28;20220;-69
2022/07/07 02:05:57;;;;;;;3.33;2.33;;;;;;;15.98;67.21;98682.94;5071421;28;20226;-69
2022/07/07 02:08:24;;;;;;;3.73;2.13;;;;;;;15.92;67.27;98687.09;5072866;28;20212;-69
2022/07/07 02:13:35;;;;;;;4.20;2.40;;;;;;;15.81;68.89;98690.63;5072697;28;20714;-69
2022/07/07 02:16:03;;;;;;;2.30;1.90;;;;;;;15.80;69.16;98688.09;5072537;28;20215;-69
2022/07/07 02:18:33;;;;;;;2.97;2.10;;;;;;;15.86;69.51;98682.25;5072581;28;20286;-69
2022/07/07 02:21:00;;;;;;;3.30;2.00;;;;;;;15.85;69.06;98685.91;5072795;28;20207;-69
2022/07/07 02:23:26;;;;;;;2.90;2.20;;;;;;;15.85;69.08;98691.22;5072953;28;20219;-69
2022/07/07 02:25:53;;;;;;;2.27;2.00;;;;;;;15.89;68.65;98692.69;5072782;28;20212;-70
2022/07/07 02:28:20;;;;;;;2.67;2.10;;;;;;;15.87;68.38;98694.59;5072694;28;20211;-69
2022/07/07 02:30:47;;;;;;;2.63;1.90;;;;;;;15.82;68.61;98696.81;5072251;28;20773;-69
2022/07/07 02:33:15;;;;;;;2.60;2.07;;;;;;;15.77;69.03;98693.69;5074763;28;20211;-70
2022/07/07 02:35:41;;;;;;;2.47;2.27;;;;;;;15.75;68.10;98695.59;5076677;28;20211;-70
2022/07/07 02:38:08;;;;;;;3.13;1.93;;;;;;;15.71;68.17;98684.34;5076618;28;20222;-69
2022/07/07 02:40:34;;;;;;;2.57;2.37;;;;;;;15.77;67.33;98691.00;5076680;28;20207;-69
2022/07/07 02:43:01;;;;;;;3.07;1.93;;;;;;;15.76;67.88;98692.81;5076577;28;20317;-69
2022/07/07 02:45:28;;;;;;;3.40;2.00;;;;;;;15.81;67.21;98689.78;5076507;28;20214;-69
2022/07/07 02:47:54;;;;;;;3.50;2.00;;;;;;;15.84;66.77;98694.88;5076256;28;20607;-69
2022/07/07 02:50:22;;;;;;;1.87;1.67;;;;;;;15.87;66.60;98689.28;5076041;28;20238;-69
2022/07/07 02:52:50;;;;;;;2.27;1.97;;;;;;;15.90;66.84;98689.91;5076431;28;20570;-69
2022/07/07 02:55:16;;;;;;;2.63;2.00;;;;;;;15.95;66.99;98684.19;5075961;28;20215;-69
2022/07/07 02:57:43;;;;;;;3.23;1.97;;;;;;;15.92;67.80;98679.09;5074218;28;20244;-70
2022/07/07 03:00:10;;;;;;;2.80;2.10;;;;;;;15.88;69.40;98680.31;5076354;28;20214;-70
2022/07/07 03:02:37;;;;;;;2.83;2.13;;;;;;;15.80;70.14;98680.09;5076286;28;20250;-70
2022/07/07 03:05:04;;;;;;;2.87;2.23;;;;;;;15.72;70.53;98680.72;5076193;28;20208;-69
2022/07/07 03:07:31;;;;;;;2.50;2.23;;;;;;;15.69;70.33;98675.63;5076182;28;20211;-69
2022/07/07 03:09:58;;;;;;;2.10;1.90;;;;;;;15.71;70.19;98678.19;5076214;28;20235;-69
2022/07/07 03:12:25;;;;;;;1.90;1.77;;;;;;;15.69;70.15;98669.44;5075801;28;20247;-69
2022/07/07 03:14:51;;;;;;;2.37;2.17;;;;;;;15.71;69.64;98683.50;5076094;28;20215;-70
2022/07/07 03:17:18;;;;;;;3.27;2.50;;;;;;;15.77;68.38;98672.34;5076176;28;20223;-69
2022/07/07 03:19:44;;;;;;;2.93;2.20;;;;;;;15.82;67.71;98675.50;5074438;28;20214;-69
2022/07/07 03:22:11;;;;;;;2.97;2.10;;;;;;;15.88;67.57;98673.16;5076067;28;20212;-69
2022/07/07 03:24:39;;;;;;;2.53;2.13;;;;;;;15.90;67.51;98665.91;5074058;28;20623;-70
2022/07/07 03:27:06;;;;;;;3.43;2.17;;;;;;;15.97;66.84;98668.91;5075863;28;20298;-71
2022/07/07 03:29:32;;;;;;;2.23;1.60;;;;;;;16.01;66.51;98659.69;5075688;28;20601;-70
2022/07/07 03:31:59;;;;;;;1.73;1.63;;;;;;;16.04;65.76;98666.44;5075403;28;20217;-71
2022/07/07 03:34:25;;;;;;;2.30;1.67;;;;;;;16.07;65.49;98662.66;5075705;28;20580;-70
2022/07/07 03:36:52;;;;;;;2.40;1.70;;;;;;;16.09;66.26;98655.41;5075744;28;20218;-70
2022/07/07 03:39:18;;;;;;;2.93;1.90;;;;;;;16.10;66.86;98655.25;5075523;28;20677;-70
2022/07/07 03:41:46;;;;;;;2.00;1.60;;;;;;;16.13;67.41;98648.00;5075291;28;20305;-71
2022/07/07 03:44:13;;;;;;;2.33;1.80;;;;;;;16.13;67.82;98642.66;5075216;28;20576;-71
2022/07/07 03:46:39;;;;;;;3.67;1.97;;;;;;;16.16;68.15;98648.59;5074063;28;20215;-70
2022/07/07 03:49:06;;;;;;;2.40;1.90;;;;;;;16.16;67.75;98641.41;5075474;28;20239;-70
2022/07/07 03:51:34;;;;;;;3.23;1.80;;;;;;;16.21;67.95;98636.53;5074027;28;20637;-70
2022/07/07 03:54:00;;;;;;;3.80;2.30;;;;;;;16.21;68.10;98641.88;5075241;28;20589;-70
2022/07/07 03:56:27;;;;;;;2.43;2.00;;;;;;;16.25;68.58;98638.00;5074788;28;20215;-70
2022/07/07 03:58:54;;;;;;;2.73;2.20;;;;;;;16.29;68.54;98639.44;5075002;28;20212;-70
2022/07/07 04:01:21;;;;;;;2.60;2.20;;;;;;;16.32;69.34;98639.16;5075065;28;20211;-70
2022/07/07 04:03:48;;;;;;;2.47;2.20;;;;;;;16.34;69.33;98642.53;5074841;28;20306;-70
2022/07/07 04:06:14;;;;;;;4.87;2.20;;;;;;;16.36;69.70;98645.94;5075169;28;20215;-70
2022/07/07 04:08:41;;;;;;;3.43;2.40;;;;;;;16.38;70.15;98644.00;5074752;28;20219;-70
2022/07/07 04:11:07;;;;;;;2.57;2.37;;;;;;;16.40;70.19;98646.56;5074937;28;20246;-70
2022/07/07 04:13:34;;;;;;;4.10;2.17;;;;;;;16.42;69.09;98642.78;5075047;28;20207;-70
2022/07/07 04:16:02;;;;;;;3.00;2.00;;;;;;;16.45;68.68;98645.19;5074714;28;20277;-69
2022/07/07 04:18:28;;;;;;;2.90;2.13;;;;;;;16.48;69.04;98650.28;5073731;28;20218;-69
2022/07/07 04:20:55;;;;;;;2.67;2.33;;;;;;;16.50;69.44;98653.66;5074914;28;20236;-70
2022/07/07 04:23:22;;;;;;;3.20;2.00;;;;;;;16.55;70.44;98651.44;5074753;28;20226;-70
2022/07/07 04:25:48;;;;;;;2.10;1.93;;;;;;;16.55;70.79;98645.25;5074391;28;20214;-70
2022/07/07 04:28:15;;;;;;;1.90;1.77;;;;;;;16.54;70.35;98636.41;5074322;28;20211;-70
2022/07/07 04:30:42;;;;;;;3.67;1.60;;;;;;;16.55;69.09;98640.78;5059774;28;20239;-70
2022/07/07 04:33:10;;;;;;;1.90;1.60;;;;;;;16.56;68.10;98637.13;5074686;28;20211;-70
2022/07/07 04:35:36;;;;;;;1.90;1.70;;;;;;;16.60;67.07;98633.22;5074519;28;20207;-70
2022/07/07 04:38:03;;;;;;;2.03;1.60;;;;;;;16.68;66.55;98625.41;5074205;28;20218;-70
2022/07/07 04:40:30;;;;;;;2.13;1.50;;;;;;;16.77;65.45;98626.44;5074190;28;20211;-70
2022/07/07 04:42:56;;;;;;;2.40;1.30;;;;;;;16.85;65.13;98624.78;5072845;28;20596;-70
2022/07/07 04:45:23;;;;;;;2.07;1.40;;;;;;;16.87;64.38;98625.50;5074528;28;20221;-70
2022/07/07 04:47:49;;;;;;;2.20;1.23;;;;;;;16.84;63.33;98633.78;5074031;28;20670;-70
2022/07/07 04:50:17;;;;;;;3.67;1.73;;;;;;;16.73;63.94;98639.19;5073900;28;20249;-70
2022/07/07 04:52:44;;;;;;;2.13;1.37;;;;;;;16.64;64.02;98631.97;5073997;28;20720;-70
2022/07/07 04:55:10;;;;;;;2.77;1.70;;;;;;;16.52;65.11;98625.00;5074191;28;20222;-70
2022/07/07 04:57:37;;;;;;;3.17;1.70;;;;;;;16.44;65.80;98626.63;5073788;28;20243;-70
2022/07/07 05:00:05;;;;;;;3.07;1.90;;;;;;;16.42;66.05;98621.44;5073519;28;20222;-70
2022/07/07 05:02:31;;;;;;;1.73;1.53;;;;;;;16.41;67.49;98618.91;5074046;28;20216;-70
2022/07/07 05:04:58;;;;;;;3.23;1.87;;;;;;;16.38;69.13;98617.34;5073982;28;20216;-70
2022/07/07 05:07:26;;;;;;;2.70;1.40;;;;;;;16.38;70.17;98628.00;5073593;28;20215;-70
2022/07/07 05:09:52;;;;;;;1.80;1.50;;;;;;;16.35;70.91;98627.38;5070979;28;20222;-71
2022/07/07 05:12:19;;;;;;;2.63;1.73;;;;;;;16.38;71.59;98620.00;5073939;28;20215;-70
2022/07/07 05:14:47;;;;;;;2.77;2.10;;;;;;;16.40;70.97;98620.72;5073813;28;20211;-69
2022/07/07 05:17:14;;;;;;;3.60;2.57;;;;;;;16.54;71.11;98624.88;5073448;28;20265;-69
2022/07/07 05:19:41;;;;;;;2.63;1.70;;;;;;;17.46;67.00;98623.78;5073604;28;20305;-69
2022/07/07 05:22:08;;;;;;;2.80;1.60;;;;;;;18.75;60.89;98622.41;5073635;28;20222;-69
2022/07/07 05:24:36;;;;;;;3.03;1.73;;;;;;;20.05;54.45;98622.03;5073307;28;20689;-69
2022/07/07 05:27:03;;;;;;;3.60;1.40;;;;;;;20.58;52.19;98617.50;5073574;28;20215;-69
2022/07/07 05:29:30;;;;;;;2.37;1.40;;;;;;;21.53;50.76;98616.38;5073358;28;20225;-69
2022/07/07 05:31:56;;;;;;;1.50;1.30;;;;;;;22.46;46.89;98619.66;5073146;28;20242;-69
2022/07/07 05:34:23;;;;;;;1.97;1.43;;;;;;;23.20;45.69;98614.88;5072991;28;20226;-69
2022/07/07 05:36:49;;;;;;;2.57;1.53;;;;;;;23.64;44.77;98618.72;5071389;28;20217;-70
2022/07/07 05:39:16;;;;;;;3.87;1.70;;;;;;;23.73;44.67;98616.84;5073307;28;20215;-70
2022/07/07 05:41:44;;;;;;;1.50;1.40;;;;;;;24.21;44.35;98612.00;5073261;28;20567;-70
2022/07/07 05:44:10;;;;;;;2.53;1.77;;;;;;;24.83;43.02;98608.16;5073345;28;20302;-71
2022/07/07 05:46:37;;;;;;;2.40;1.40;;;;;;;25.36;41.46;98594.38;5073259;28;20226;-71
2022/07/07 05:49:03;;;;;;;2.13;1.30;;;;;;;25.63;39.86;98607.25;5073165;28;20269;-69
2022/07/07 05:51:30;;;;;;;3.30;1.83;;;;;;;25.99;40.18;98601.88;5073265;28;20231;-69
2022/07/07 05:53:56;;;;;;;2.83;1.53;;;;;;;26.35;39.78;98584.56;5073105;28;20216;-70
2022/07/07 05:56:23;;;;;;;1.73;1.13;;;;;;;26.83;34.21;98586.44;5073246;28;20627;-70
2022/07/07 05:58:51;;;;;;;2.00;1.30;;;;;;;27.34;34.36;98596.84;5073292;28;20226;-69
2022/07/07 06:01:18;;;;;;;2.40;1.43;;;;;;;27.98;36.77;98600.09;5071236;28;20289;-70
2022/07/07 06:03:44;;;;;;;2.70;1.57;;;;;;;28.45;26.93;98619.91;5073149;28;20223;-70
2022/07/07 06:06:11;;;;;;;4.40;1.67;;;;;;;28.14;34.78;98607.88;5072392;28;20211;-70
2022/07/07 06:08:38;;;;;;;1.60;1.23;;;;;;;26.96;36.89;98605.56;5073056;28;20302;-71
2022/07/07 06:11:05;;;;;;;1.37;1.20;;;;;;;26.35;37.75;98595.41;5070840;28;20237;-72
2022/07/07 06:13:31;;;;;;;1.90;1.47;;;;;;;26.17;38.00;98600.44;5071389;28;20211;-70
2022/07/07 06:15:59;;;;;;;2.50;1.10;;;;;;;25.43;39.33;98600.72;5072870;28;20215;-69
2022/07/07 06:18:26;;;;;;;1.57;1.00;;;;;;;25.33;39.89;98605.59;5071494;28;20227;-69
2022/07/07 06:20:53;;;;;;;2.17;1.10;;;;;;;26.46;38.39;98597.56;5073056;28;20229;-69
2022/07/07 06:23:19;;;;;;;2.80;1.20;;;;;;;27.09;35.46;98594.78;5072617;28;20220;-69
2022/07/07 06:25:46;;;;;;;1.43;0.97;;;;;;;27.70;34.79;98604.78;5072583;28;20221;-69
2022/07/07 06:28:13;;;;;;;3.13;1.30;;;;;;;27.18;35.20;98593.63;5071178;28;20273;-69
2022/07/07 06:30:39;;;;;;;2.40;1.20;;;;;;;26.01;36.80;98594.38;5072880;28;20278;-69
2022/07/07 06:33:08;;;;;;;2.57;1.30;;;;;;;25.05;38.95;98598.28;5072184;28;20586;-69
2022/07/07 06:35:34;;;;;;;1.80;1.30;;;;;;;24.30;40.32;98594.72;5071680;28;20226;-69
2022/07/07 06:38:01;;;;;;;2.20;1.67;;;;;;;23.67;41.73;98596.81;5071847;28;20614;-69
2022/07/07 06:40:27;;;;;;;1.67;1.23;;;;;;;23.16;42.41;98597.34;5072721;28;20269;-70
2022/07/07 06:42:54;;;;;;;2.57;1.40;;;;;;;22.81;43.21;98592.31;5072415;28;20691;-69
2022/07/07 06:45:20;;;;;;;2.13;1.43;;;;;;;22.64;44.21;98582.59;5072537;28;20212;-69
2022/07/07 06:47:47;;;;;;;2.30;1.30;;;;;;;22.73;44.42;98584.25;5072297;28;20222;-69
2022/07/07 06:50:14;;;;;;;1.67;1.40;;;;;;;23.09;44.18;98582.84;5072677;28;20212;-69
2022/07/07 06:52:41;;;;;;;2.20;1.60;;;;;;;23.42;42.87;98580.91;5072748;28;20298;-69
2022/07/07 06:55:08;;;;;;;1.87;1.40;;;;;;;23.26;43.72;98586.34;5070976;28;20211;-68
2022/07/07 06:57:35;;;;;;;1.90;1.40;;;;;;;23.40;44.34;98586.47;5072488;28;20245;-69
2022/07/07 07:03:23;;;;;;;1.80;1.60;;;;;;;23.32;44.30;98585.66;5181978;22;20247;-68
2022/07/07 07:05:51;;;;;;;2.47;1.70;;;;;;;23.00;44.41;98591.97;5052135;28;20224;-68
2022/07/07 07:08:17;;;;;;;1.63;1.50;;;;;;;22.81;45.22;98586.94;5052419;28;20216;-71
2022/07/07 07:10:44;;;;;;;1.60;1.30;;;;;;;22.62;45.85;98587.31;5052193;28;20236;-69
2022/07/07 07:13:11;;;;;;;3.17;1.43;;;;;;;22.48;46.23;98600.63;5052447;28;20222;-69
2022/07/07 07:15:39;;;;;;;1.53;1.40;;;;;;;22.23;46.84;98601.59;5052136;28;20220;-69
2022/07/07 07:18:06;;;;;;;2.10;1.70;;;;;;;22.01;47.74;98586.94;5054036;28;20248;-69
2022/07/07 07:20:32;;;;;;;2.33;1.70;;;;;;;22.12;47.49;98592.00;5054342;28;20216;-69
2022/07/07 07:23:00;;;;;;;2.67;1.37;;;;;;;22.55;47.36;98597.09;5056046;28;20222;-69
2022/07/07 07:25:27;;;;;;;4.20;1.90;;;;;;;23.04;46.61;98592.47;5056007;28;20303;-69
2022/07/07 07:27:53;;;;;;;2.77;1.50;;;;;;;23.36;46.02;98590.50;5056045;28;20216;-69
2022/07/07 07:30:20;;;;;;;2.70;1.60;;;;;;;23.40;46.08;98589.16;5055837;28;20212;-69
2022/07/07 07:32:47;;;;;;;1.60;1.30;;;;;;;23.29;45.92;98592.22;5055760;28;20247;-69
2022/07/07 07:35:13;;;;;;;2.33;1.40;;;;;;;23.12;45.73;98605.91;5055775;28;20584;-69
2022/07/07 07:37:40;;;;;;;2.93;1.40;;;;;;;22.75;46.00;98603.78;5055789;28;20223;-69
2022/07/07 07:40:10;;;;;;;3.63;1.40;;;;;;;22.44;47.15;98601.97;5055726;28;20547;-69
2022/07/07 07:42:38;;;;;;;2.10;1.50;;;;;;;22.21;47.50;98609.88;5055706;28;20522;-69
2022/07/07 07:45:11;;;;;;;3.13;1.83;;;;;;;21.87;48.62;98616.34;5055248;28;20222;-69
2022/07/07 07:47:39;;;;;;;1.40;1.30;;;;;;;21.58;50.13;98616.72;5053927;28;20638;-69
2022/07/07 07:50:07;;;;;;;2.33;1.40;;;;;;;21.46;51.41;98626.09;5055500;28;20659;-69
2022/07/07 07:52:33;;;;;;;2.80;1.63;;;;;;;21.36;50.83;98628.09;5055034;28;20251;-68
2022/07/07 07:55:00;;;;;;;2.47;1.70;;;;;;;21.21;49.91;98628.84;5055339;28;20582;-68
2022/07/07 07:57:28;;;;;;;2.00;1.67;;;;;;;21.18;50.50;98637.22;5055223;28;20208;-68
2022/07/07 07:59:55;;;;;;;1.70;1.30;;;;;;;21.14;50.98;98633.16;5054981;28;20215;-69
2022/07/07 08:02:22;;;;;;;2.30;1.30;;;;;;;21.07;51.71;98632.13;5055125;28;20247;-68
2022/07/07 08:04:48;;;;;;;2.00;1.50;;;;;;;21.08;51.87;98626.59;5055017;28;20212;-69
2022/07/07 08:07:15;;;;;;;1.83;1.67;;;;;;;21.21;51.94;98620.78;5054972;28;20214;-69
2022/07/07 08:09:41;;;;;;;2.93;1.57;;;;;;;21.50;51.61;98614.03;5055143;28;20235;-69
2022/07/07 08:12:08;;;;;;;3.10;1.93;;;;;;;21.93;50.97;98616.53;5055045;28;20240;-69
2022/07/07 08:14:36;;;;;;;2.23;1.60;;;;;;;22.18;48.96;98602.09;5053386;28;20227;-68
2022/07/07 08:17:03;;;;;;;2.40;1.50;;;;;;;22.32;47.86;98596.03;5054888;28;20239;-69
2022/07/07 08:19:29;;;;;;;2.77;1.70;;;;;;;22.30;49.09;98592.69;5054720;28;20208;-68
2022/07/07 08:21:56;;;;;;;1.90;1.60;;;;;;;22.35;49.49;98597.56;5054613;28;20216;-69
2022/07/07 08:24:22;;;;;;;3.10;2.13;;;;;;;22.14;49.22;98603.44;5054448;28;20220;-69
2022/07/07 08:26:49;;;;;;;3.30;2.00;;;;;;;22.10;49.78;98604.78;5054760;28;20303;-69
2022/07/07 08:29:16;;;;;;;3.90;2.10;;;;;;;22.21;49.42;98599.09;5054161;28;20668;-69
2022/07/07 08:31:44;;;;;;;3.23;1.87;;;;;;;22.28;49.95;98605.47;5054536;28;20316;-69
2022/07/07 08:34:10;;;;;;;2.03;1.83;;;;;;;22.29;50.26;98601.78;5054145;28;20220;-69
2022/07/07 08:36:37;;;;;;;2.70;2.40;;;;;;;22.27;50.56;98603.81;5054225;28;20216;-69
2022/07/07 08:39:04;;;;;;;2.97;2.27;;;;;;;22.39;50.57;98607.84;5053655;28;20227;-68
2022/07/07 08:41:31;;;;;;;3.50;2.97;;;;;;;22.44;50.31;98605.50;5053639;28;20694;-69
2022/07/07 08:43:59;;;;;;;3.43;2.67;;;;;;;22.35;51.06;98614.56;5054347;28;20212;-69
2022/07/07 08:46:25;;;;;;;3.87;3.10;;;;;;;22.18;51.96;98604.78;5054518;28;20220;-69
2022/07/07 08:48:54;;;;;;;3.83;2.80;;;;;;;22.22;51.91;98598.06;5052788;28;20218;-69
2022/07/07 08:51:21;;;;;;;4.20;3.00;;;;;;;22.23;52.00;98591.69;5052730;28;20236;-76
2022/07/07 08:53:48;;;;;;;6.17;3.43;;;;;;;22.33;52.49;98581.59;5052726;28;20212;-75
2022/07/07 08:56:16;;;;;;;3.83;3.40;;;;;;;22.66;52.12;98572.50;5052983;28;20640;-74
2022/07/07 08:58:44;;;;;;;4.70;3.13;;;;;;;22.87;51.70;98586.25;5052889;28;20266;-74
2022/07/07 09:01:10;;;;;;;4.90;3.10;;;;;;;23.12;50.88;98584.34;5052890;28;20216;-74
2022/07/07 09:03:37;;;;;;;4.17;2.17;;;;;;;23.17;51.30;98572.03;5052479;28;20251;-74
2022/07/07 09:06:06;;;;;;;2.97;1.90;;;;;;;23.37;50.35;98586.81;5051021;28;20216;-73
2022/07/07 09:08:33;;;;;;;1.97;1.70;;;;;;;23.40;51.08;98589.16;5052742;28;20638;-74
2022/07/07 09:11:00;;;;;;;2.73;2.00;;;;;;;23.18;50.86;98589.94;5052378;28;20224;-69
2022/07/07 09:13:28;;;;;;;2.60;1.83;;;;;;;22.73;52.38;98591.53;5052609;28;20219;-69
2022/07/07 09:15:56;;;;;;;4.43;1.80;;;;;;;22.57;53.11;98595.09;5037929;28;20223;-74
2022/07/07 09:18:30;;;;;;;3.07;1.70;;;;;;;22.56;53.75;98601.44;5052471;28;20212;-74
2022/07/07 09:20:58;;;;;;;3.87;1.70;;;;;;;22.49;54.43;98616.63;5052769;28;20262;-74
2022/07/07 09:23:26;;;;;;;2.80;2.00;;;;;;;22.30;55.06;98611.53;5052028;28;20223;-74
2022/07/07 09:25:52;;;;;;;4.43;2.13;;;;;;;22.18;55.57;98610.19;5052272;28;20269;-74
2022/07/07 09:28:19;;;;;;;3.07;2.57;;;;;;;22.18;56.07;98610.19;5052419;28;20659;-75
2022/07/07 09:30:47;;;;;;;3.20;2.60;;;;;;;22.23;56.68;98613.22;5052409;28;20583;-74
2022/07/07 09:33:15;;;;;;;4.67;2.40;;;;;;;22.12;57.55;98597.38;5050517;28;20236;-73
2022/07/07 09:38:30;;;;;;;4.17;2.10;;;;;;;21.74;59.97;98606.06;5052090;28;20598;-68
2022/07/07 09:41:02;;;;;;;4.77;2.67;;;;;;;21.63;60.70;98603.66;5051563;28;20227;-68
2022/07/07 09:43:30;;;;;;;2.23;2.03;;;;;;;21.47;61.31;98614.34;5037981;28;20295;-69
2022/07/07 09:46:14;;;;;;;2.60;2.17;;;;;;;21.37;61.53;98618.16;5051927;28;20216;-68
2022/07/07 09:48:43;;;;;;;3.47;2.10;;;;;;;21.23;62.44;98630.38;5051973;28;20222;-69
2022/07/07 09:51:17;;;;;;;2.97;2.20;;;;;;;21.14;62.40;98633.16;5051701;28;20220;-69
2022/07/07 09:54:03;;;;;;;2.90;2.00;;;;;;;21.01;63.21;98636.31;5052184;28;20211;-69
2022/07/07 09:56:31;;;;;;;2.07;1.70;;;;;;;21.01;62.57;98636.31;5051919;28;20220;-69
2022/07/07 09:58:59;;;;;;;2.10;1.90;;;;;;;21.17;62.39;98632.88;5049699;28;20306;-68
2022/07/07 10:01:28;;;;;;;4.03;1.80;;;;;;;21.25;62.86;98631.06;5050889;28;20239;-75
2022/07/07 10:03:57;;;;;;;2.13;1.70;;;;;;;21.51;62.26;98621.09;5051547;28;20676;-74
2022/07/07 10:06:24;;;;;;;2.77;1.73;;;;;;;21.75;60.06;98626.59;5051629;28;20212;-75
2022/07/07 10:08:56;;;;;;;2.67;1.90;;;;;;;21.98;58.18;98629.50;5051654;28;20220;-74
2022/07/07 10:11:32;;;;;;;2.50;1.87;;;;;;;22.35;58.20;98627.19;5051692;28;20238;-74
2022/07/07 10:14:08;;;;;;;2.83;1.70;;;;;;;22.69;55.51;98631.44;5051425;28;20239;-74
2022/07/07 10:16:35;;;;;;;2.10;1.90;;;;;;;23.06;55.46;98636.28;5051486;28;20243;-73
2022/07/07 10:19:02;;;;;;;1.93;1.70;;;;;;;23.27;53.65;98637.44;5051737;28;20692;-74
2022/07/07 10:21:29;;;;;;;2.17;1.70;;;;;;;23.56;53.54;98647.59;5051808;28;20218;-73
2022/07/07 10:23:56;;;;;;;3.60;2.03;;;;;;;23.82;52.41;98634.66;5051485;28;20688;-74
2022/07/07 10:26:37;;;;;;;2.23;1.80;;;;;;;23.84;52.83;98638.03;5049709;28;20212;-75
2022/07/07 10:29:04;;;;;;;3.13;1.80;;;;;;;23.74;52.44;98635.56;5051465;28;20218;-76
2022/07/07 10:31:31;;;;;;;2.33;1.70;;;;;;;23.83;52.79;98634.50;5051231;28;20234;-77
2022/07/07 10:34:01;;;;;;;3.50;2.00;;;;;;;23.55;52.84;98625.19;5051192;28;20223;-77
2022/07/07 10:36:29;;;;;;;2.03;1.80;;;;;;;23.59;53.78;98642.69;5051441;28;20211;-70
2022/07/07 10:38:58;;;;;;;2.00;1.80;;;;;;;23.81;53.54;98641.06;5051070;28;20689;-70
2022/07/07 10:41:26;;;;;;;2.60;1.90;;;;;;;23.87;53.79;98637.66;5051331;28;20218;-68
2022/07/07 10:44:06;;;;;;;1.67;1.50;;;;;;;23.77;54.47;98639.78;5051459;28;20597;-69
2022/07/07 10:46:34;;;;;;;2.97;1.80;;;;;;;23.65;53.87;98635.78;5038339;28;20208;-70
2022/07/07 10:49:10;;;;;;;1.67;1.57;;;;;;;23.48;54.12;98639.56;5051411;28;20216;-69
2022/07/07 10:51:53;;;;;;;2.23;1.73;;;;;;;23.04;55.26;98647.22;5052169;28;20216;-69
2022/07/07 10:54:35;;;;;;;1.97;1.50;;;;;;;22.74;56.31;98650.63;5040233;28;20223;-70
2022/07/07 10:57:13;;;;;;;2.00;1.40;;;;;;;22.62;57.55;98645.75;5055299;28;20222;-69
2022/07/07 11:00:06;;;;;;;3.37;1.90;;;;;;;22.57;57.36;98648.97;5055140;28;20672;-69
2022/07/07 11:02:33;;;;;;;2.33;1.60;;;;;;;22.54;58.26;98654.69;5054585;28;20322;-76
2022/07/07 11:05:02;;;;;;;1.83;1.60;;;;;;;22.31;58.43;98659.00;5055134;28;20242;-76
2022/07/07 11:07:29;;;;;;;2.43;1.57;;;;;;;21.92;62.33;98663.31;5054959;28;20216;-76
2022/07/07 11:09:57;;;;;;;1.67;1.57;;;;;;;20.92;71.97;98664.09;5054453;28;20212;-76
2022/07/07 11:12:38;;;;;;;2.90;1.70;;;;;;;20.31;74.26;98660.56;5054619;28;20235;-77
2022/07/07 11:15:35;;;;;;;2.40;1.73;;;;;;;20.38;72.35;98667.03;5050195;28;20219;-78
2022/07/07 11:18:13;;;;;;;4.10;1.87;;;;;;;20.68;68.98;98655.88;5054662;28;20219;-77
2022/07/07 11:20:56;;;;;;;2.80;2.00;;;;;;;20.94;68.05;98659.44;5052841;28;20216;-75
2022/07/07 11:23:23;;;;;;;4.30;1.70;;;;;;;21.23;68.04;98656.41;5054406;28;20300;-76
2022/07/07 11:25:55;;;;;;;2.30;1.70;;;;;;;21.31;66.08;98657.31;5054607;28;20215;-76
2022/07/07 11:28:24;;;;;;;2.60;1.60;;;;;;;21.33;65.84;98655.28;5054704;28;20220;-75
2022/07/07 11:31:01;;;;;;;5.27;2.03;;;;;;;21.23;65.26;98651.91;5050130;28;20208;-76
2022/07/07 11:33:27;;;;;;;4.70;2.03;;;;;;;21.31;65.66;98659.13;5053673;28;20349;-74
2022/07/07 11:35:54;;;;;;;2.97;1.90;;;;;;;21.39;63.67;98659.19;5054319;28;20219;-75
2022/07/07 11:38:27;;;;;;;3.17;2.00;;;;;;;21.22;62.63;98662.81;5054152;28;20212;-76
2022/07/07 11:40:54;;;;;;;1.97;1.77;;;;;;;21.13;65.14;98674.50;5054269;28;20216;-76
2022/07/07 11:43:21;;;;;;;3.10;2.00;;;;;;;20.93;68.13;98665.81;5054376;28;20303;-75
2022/07/07 11:45:48;;;;;;;3.77;2.00;;;;;;;20.91;67.89;98657.06;5052715;28;20222;-74